Airport View

Enter AWOS ICAO identifier for current METAR.

ex. KFNL

KBNW 300350Z AUTO 32004KT 10SM FEW055 BKN070 OVC080 00/00 A3016 RMK AO2

30 Oct 2020 03:50

Frequency: 120.925

Phone: 515-432-9042

Other Area AWOS: KAMW - KPRO - KEBS - KIKV

TAF KDSM 292320Z 3000/3024 36007KT P6SM SCT025 BKN035 FM300200 34004KT P6SM FEW070 FM300900 14005KT P6SM FEW070